createdAt,value
2018-12-27T00:00:10.000Z,24.82
2018-12-27T00:10:10.000Z,24.76
2018-12-27T00:20:10.000Z,24.7
2018-12-27T00:30:10.000Z,24.64
2018-12-27T00:40:10.000Z,24.58
2018-12-27T00:50:10.000Z,24.54
2018-12-27T01:00:10.000Z,24.49
2018-12-27T01:10:10.000Z,24.45
2018-12-27T01:20:10.000Z,24.4
2018-12-27T01:30:10.000Z,24.37
2018-12-27T01:40:10.000Z,24.29
2018-12-27T01:50:10.000Z,24.24
2018-12-27T02:00:10.000Z,24.23
2018-12-27T02:10:10.000Z,24.2
2018-12-27T02:20:10.000Z,24.16
2018-12-27T02:30:10.000Z,24.11
2018-12-27T02:40:10.000Z,24.06
2018-12-27T02:50:10.000Z,24.01
2018-12-27T03:10:10.000Z,23.96
2018-12-27T03:20:10.000Z,23.93
2018-12-27T03:30:10.000Z,23.87
2018-12-27T03:40:10.000Z,23.84
2018-12-27T03:50:10.000Z,23.84
2018-12-27T04:00:10.000Z,23.72
2018-12-27T04:10:10.000Z,23.74
2018-12-27T04:20:10.000Z,23.71
2018-12-27T04:30:10.000Z,23.67
2018-12-27T04:40:10.000Z,23.48
2018-12-27T04:50:10.000Z,23.4
2018-12-27T05:00:10.000Z,23.42
2018-12-27T05:10:10.000Z,23.4
2018-12-27T05:20:10.000Z,23.375
2018-12-27T05:30:10.000Z,23.38
2018-12-27T05:40:10.000Z,23.38
2018-12-27T05:50:10.000Z,23.47
2018-12-27T06:00:10.000Z,23.3
2018-12-27T06:10:12.000Z,23.33
2018-12-27T06:20:11.000Z,23.38
2018-12-27T06:30:11.000Z,23.28
2018-12-27T06:40:11.000Z,23.28
2018-12-27T06:50:11.000Z,23.31
2018-12-27T07:00:12.000Z,23.44
2018-12-27T07:10:11.000Z,23.47
2018-12-27T07:20:11.000Z,23.52
2018-12-27T07:30:14.000Z,23.54
2018-12-27T07:40:11.000Z,23.55
2018-12-27T07:50:11.000Z,23.71
2018-12-27T08:00:11.000Z,23.81
2018-12-27T08:10:12.000Z,23.86
2018-12-27T08:20:11.000Z,23.89
2018-12-27T08:30:11.000Z,24
2018-12-27T08:40:11.000Z,24.14
2018-12-27T08:50:11.000Z,24.15
2018-12-27T09:00:11.000Z,24.2
2018-12-27T09:10:11.000Z,24.22
2018-12-27T09:20:11.000Z,23.87
2018-12-27T09:30:12.000Z,23.93
2018-12-27T09:50:11.000Z,24.07
2018-12-27T10:00:11.000Z,24.14
2018-12-27T10:10:14.000Z,24.27
2018-12-27T10:20:11.000Z,24.42
2018-12-27T10:30:11.000Z,24.41
2018-12-27T10:40:11.000Z,24.45
2018-12-27T10:50:11.000Z,24.49
2018-12-27T11:00:11.000Z,24.5
2018-12-27T11:10:11.000Z,24.53
2018-12-27T11:20:11.000Z,24.48
2018-12-27T11:30:11.000Z,24.49
2018-12-27T11:40:11.000Z,24.49
2018-12-27T11:50:11.000Z,24.45
2018-12-27T12:00:11.000Z,24.5
2018-12-27T12:10:11.000Z,24.54
2018-12-27T12:20:11.000Z,24.59
2018-12-27T12:30:11.000Z,24.56
2018-12-27T12:40:11.000Z,24.64
2018-12-27T12:50:11.000Z,24.52
2018-12-27T13:00:11.000Z,24.55
2018-12-27T13:10:11.000Z,24.56
2018-12-27T13:20:11.000Z,24.49
2018-12-27T13:30:11.000Z,24.51
2018-12-27T13:40:11.000Z,24.51
2018-12-27T13:50:11.000Z,24.52
2018-12-27T14:00:11.000Z,24.54
2018-12-27T14:10:11.000Z,24.56
2018-12-27T14:20:12.000Z,24.58
2018-12-27T14:30:12.000Z,24.56
2018-12-27T14:40:12.000Z,24.56
2018-12-27T14:50:12.000Z,24.55
2018-12-27T15:00:12.000Z,24.55
2018-12-27T15:10:12.000Z,24.58
2018-12-27T15:20:12.000Z,24.49
2018-12-27T15:30:12.000Z,24.58
2018-12-27T15:40:12.000Z,24.51
2018-12-27T15:50:12.000Z,24.48
2018-12-27T16:00:12.000Z,24.57
2018-12-27T16:10:12.000Z,24.61
2018-12-27T16:20:12.000Z,24.58
2018-12-27T16:30:12.000Z,24.57
2018-12-27T16:40:12.000Z,24.54
2018-12-27T16:50:13.000Z,24.6
2018-12-27T17:00:12.000Z,24.59
2018-12-27T17:10:12.000Z,24.6
2018-12-27T17:20:12.000Z,24.59
2018-12-27T17:30:12.000Z,24.72
2018-12-27T17:40:12.000Z,24.65
2018-12-27T18:00:12.000Z,24.6
2018-12-27T18:10:12.000Z,24.61
2018-12-27T18:20:12.000Z,24.61
2018-12-27T18:40:13.000Z,24.66
2018-12-27T18:50:12.000Z,24.69
2018-12-27T19:00:12.000Z,24.8
2018-12-27T19:10:12.000Z,24.58
2018-12-27T19:20:12.000Z,24.92
2018-12-27T19:30:16.000Z,24.9
2018-12-27T19:40:12.000Z,24.9
2018-12-27T19:50:12.000Z,24.95
2018-12-27T20:00:16.000Z,24.9
2018-12-27T20:10:12.000Z,24.92
2018-12-27T20:20:14.000Z,24.92
2018-12-27T20:30:12.000Z,24.97
2018-12-27T20:40:12.000Z,24.95
2018-12-27T20:50:12.000Z,24.91
2018-12-27T21:00:12.000Z,24.89
2018-12-27T21:10:12.000Z,24.89
2018-12-27T21:20:12.000Z,24.82
2018-12-27T21:30:12.000Z,24.56
2018-12-27T21:40:12.000Z,24.88
2018-12-27T21:50:13.000Z,24.93
2018-12-27T22:00:16.000Z,24.94
2018-12-27T22:10:13.000Z,24.9
2018-12-27T22:20:12.000Z,24.86
2018-12-27T22:30:13.000Z,24.85
2018-12-27T22:40:13.000Z,24.81
2018-12-27T22:50:13.000Z,24.79
2018-12-27T23:00:14.000Z,24.76
2018-12-27T23:10:13.000Z,24.71
2018-12-27T23:20:13.000Z,24.62
2018-12-27T23:30:13.000Z,24.6
2018-12-27T23:40:13.000Z,24.57
2018-12-27T23:50:13.000Z,24.49
